LSGS METAR and TAF | Updated Today

LSGS METAR

Sion Airport

Observation time: 16 min. ago

LSGS 291220Z 24011KT 200V270 9999 SCT100 22/01 Q1006

Need help? Read our tutorial on how to read METARs or read the parsed version below.

Sion Airport (LSGS) METAR

  • Weather conditions on Sun, 29 May 2022 12:20:00 +0000 (16 min. ago):
  • Present conditions: Dry
  • Clouds: Scattered at 3048 meters
  • Visibility: Greater than 10 km
  • Wind: 240 degrees at 11 knots
  • Temperature: 22 celsius
  • Dew point: 1 celsius
  • Pressure: 1006 millibars
  • Remarks: None


Useful to know...

LSGS TAF

Sion Airport

TAF LSGS 291125Z 2912/2921 25015KT 9999 SCT080 BECMG 2918/2920 25005KT
Observation time: 71 min. ago
Need help? Read our tutorial on how to read TAFs or read the parsed version below.

Parsed version of TAF for Sion Airport (LSGS)

  • From 29 May at 12:00 UTC, to day 29 of the month at 21:00 UTC
  • Clouds: Scattered at 2438 meters
  • Visibility: Greater than 10 km
  • Wind: 250 degrees at 15
  • Expected to arise soon, from 29 May at 18:00 UTC, to day 29 of the month at 20:00 UTC
  • Wind: 250 degrees at 5